createdAt,value
2023-02-24T00:02:02.012Z,-2.82
2023-02-24T00:04:32.500Z,-2.83
2023-02-24T00:07:00.502Z,-2.85
2023-02-24T00:09:30.184Z,-2.84
2023-02-24T00:12:03.796Z,-2.83
2023-02-24T00:14:36.893Z,-2.82
2023-02-24T00:17:08.262Z,-2.81
2023-02-24T00:19:36.848Z,-2.79
2023-02-24T00:22:08.169Z,-2.79
2023-02-24T00:24:37.754Z,-2.78
2023-02-24T00:27:12.079Z,-2.77
2023-02-24T00:29:42.314Z,-2.77
2023-02-24T00:32:13.525Z,-2.76
2023-02-24T00:34:42.079Z,-2.75
2023-02-24T00:37:10.069Z,-2.75
2023-02-24T00:39:41.730Z,-2.76
2023-02-24T00:42:11.814Z,-2.77
2023-02-24T00:44:44.917Z,-2.76
2023-02-24T00:47:13.589Z,-2.76
2023-02-24T00:49:42.850Z,-2.75
2023-02-24T00:52:19.513Z,-2.74
2023-02-24T00:54:49.298Z,-2.73
2023-02-24T00:57:21.586Z,-2.73
2023-02-24T00:59:52.428Z,-2.71
2023-02-24T01:02:21.544Z,-2.69
2023-02-24T01:04:51.656Z,-2.69
2023-02-24T01:07:19.873Z,-2.69
2023-02-24T01:09:49.988Z,-2.69
2023-02-24T01:12:23.658Z,-2.69
2023-02-24T01:14:53.003Z,-2.68
2023-02-24T01:17:21.242Z,-2.67
2023-02-24T01:19:49.960Z,-2.66
2023-02-24T01:22:19.635Z,-2.65
2023-02-24T01:24:50.967Z,-2.64
2023-02-24T01:27:19.748Z,-2.65
2023-02-24T01:29:48.411Z,-2.64
2023-02-24T01:32:19.537Z,-2.63
2023-02-24T01:34:48.265Z,-2.63
2023-02-24T01:37:16.599Z,-2.62
2023-02-24T01:39:45.533Z,-2.61
2023-02-24T01:42:17.113Z,-2.61
2023-02-24T01:44:45.078Z,-2.61
2023-02-24T01:47:15.010Z,-2.60
2023-02-24T01:49:44.233Z,-2.61
2023-02-24T01:52:18.136Z,-2.63
2023-02-24T01:54:49.131Z,-2.62
2023-02-24T01:57:19.977Z,-2.61
2023-02-24T01:59:48.727Z,-2.60
2023-02-24T02:02:16.938Z,-2.61
2023-02-24T02:04:55.075Z,-2.59
2023-02-24T02:07:24.647Z,-2.59
2023-02-24T02:09:55.676Z,-2.58
2023-02-24T02:12:27.348Z,-2.58
2023-02-24T02:14:59.636Z,-2.57
2023-02-24T02:17:33.422Z,-2.58
2023-02-24T02:20:39.570Z,-2.56
2023-02-24T02:23:30.682Z,-2.55
2023-02-24T02:26:19.982Z,-2.56
2023-02-24T02:29:25.956Z,-2.55
2023-02-24T02:32:17.336Z,-2.53
2023-02-24T02:34:55.663Z,-2.51
2023-02-24T02:37:37.568Z,-2.49
2023-02-24T02:40:19.565Z,-2.47
2023-02-24T02:42:58.282Z,-2.45
2023-02-24T02:45:40.395Z,-2.43
2023-02-24T02:48:37.717Z,-2.41
2023-02-24T02:51:11.355Z,-2.38
2023-02-24T02:54:10.537Z,-2.36
2023-02-24T02:56:57.320Z,-2.33
2023-02-24T02:59:25.390Z,-2.32
2023-02-24T03:01:55.814Z,-2.32
2023-02-24T03:04:25.419Z,-2.31
2023-02-24T03:06:57.317Z,-2.30
2023-02-24T03:09:29.460Z,-2.28
2023-02-24T03:11:59.933Z,-2.25
2023-02-24T03:14:30.898Z,-2.23
2023-02-24T03:16:59.094Z,-2.23
2023-02-24T03:19:32.352Z,-2.24
2023-02-24T03:22:12.523Z,-2.25
2023-02-24T03:24:44.391Z,-2.29
2023-02-24T03:27:27.127Z,-2.31
2023-02-24T03:30:07.357Z,-2.31
2023-02-24T03:33:09.632Z,-2.31
2023-02-24T03:35:39.348Z,-2.31
2023-02-24T03:38:10.200Z,-2.31
2023-02-24T03:40:38.452Z,-2.30
2023-02-24T03:43:26.213Z,-2.27
2023-02-24T03:45:54.864Z,-2.25
2023-02-24T03:48:25.447Z,-2.25
2023-02-24T03:50:53.849Z,-2.23
2023-02-24T03:53:41.757Z,-2.21
2023-02-24T03:56:33.416Z,-2.20
2023-02-24T03:59:15.175Z,-2.19
2023-02-24T04:01:55.388Z,-2.16
2023-02-24T04:04:33.229Z,-2.13
2023-02-24T04:07:26.487Z,-2.09
2023-02-24T04:10:09.428Z,-2.04
2023-02-24T04:12:49.747Z,-2.01
2023-02-24T04:15:40.763Z,-2.00
2023-02-24T04:18:27.541Z,-1.96
2023-02-24T04:22:33.215Z,-1.91
2023-02-24T04:25:01.503Z,-1.90
2023-02-24T04:27:30.500Z,-1.88
2023-02-24T04:30:10.868Z,-1.86
2023-02-24T04:32:45.011Z,-1.85
2023-02-24T04:35:17.080Z,-1.84
2023-02-24T04:37:50.580Z,-1.83
2023-02-24T04:40:22.216Z,-1.83
2023-02-24T04:42:52.205Z,-1.81
2023-02-24T04:47:18.223Z,-1.76
2023-02-24T04:49:46.400Z,-1.72
2023-02-24T04:52:16.110Z,-1.70
2023-02-24T04:57:22.889Z,-1.62
2023-02-24T04:59:53.893Z,-1.61
2023-02-24T05:02:21.743Z,-1.56
2023-02-24T05:04:49.884Z,-1.51
2023-02-24T05:09:35.225Z,-1.41
2023-02-24T05:12:06.385Z,-1.44
2023-02-24T05:14:34.545Z,-1.48
2023-02-24T05:17:02.449Z,-1.52
2023-02-24T05:19:49.591Z,-1.57
2023-02-24T05:22:17.976Z,-1.63
2023-02-24T05:24:48.218Z,-1.65
2023-02-24T05:27:17.602Z,-1.66
2023-02-24T05:29:48.843Z,-1.65
2023-02-24T05:32:17.180Z,-1.64
2023-02-24T05:34:45.462Z,-1.63
2023-02-24T05:37:16.761Z,-1.59
2023-02-24T05:39:45.034Z,-1.56
2023-02-24T05:42:13.012Z,-1.56
2023-02-24T05:44:41.938Z,-1.55
2023-02-24T05:47:11.089Z,-1.52
2023-02-24T05:49:43.935Z,-1.51
2023-02-24T05:52:14.190Z,-1.50
2023-02-24T05:54:45.174Z,-1.49
2023-02-24T05:57:21.085Z,-1.46
2023-02-24T05:59:50.342Z,-1.43
2023-02-24T06:02:27.527Z,-1.41
2023-02-24T06:04:56.206Z,-1.39
2023-02-24T06:07:26.407Z,-1.39
2023-02-24T06:09:58.070Z,-1.38
2023-02-24T06:12:31.981Z,-1.37
2023-02-24T06:15:07.878Z,-1.34
2023-02-24T06:17:39.632Z,-1.31
2023-02-24T06:20:14.304Z,-1.25
2023-02-24T06:22:42.990Z,-1.22
2023-02-24T06:25:14.289Z,-1.19
2023-02-24T06:27:43.149Z,-1.17
2023-02-24T06:30:12.236Z,-1.15
2023-02-24T06:32:44.906Z,-1.14
2023-02-24T06:35:12.972Z,-1.12
2023-02-24T06:37:41.232Z,-1.09
2023-02-24T06:40:15.956Z,-1.03
2023-02-24T06:42:56.080Z,-0.98
2023-02-24T06:45:26.330Z,-0.89
2023-02-24T06:47:54.394Z,-0.79
2023-02-24T06:50:23.740Z,-0.73
2023-02-24T06:52:55.029Z,-0.70
2023-02-24T06:55:27.204Z,-0.66
2023-02-24T06:57:57.362Z,-0.63
2023-02-24T07:00:39.910Z,-0.60
2023-02-24T07:03:17.851Z,-0.55
2023-02-24T07:06:11.223Z,-0.52
2023-02-24T07:08:40.320Z,-0.50
2023-02-24T07:11:09.545Z,-0.51
2023-02-24T07:13:37.923Z,-0.48
2023-02-24T07:16:11.981Z,-0.44
2023-02-24T07:18:40.972Z,-0.41
2023-02-24T07:21:11.818Z,-0.37
2023-02-24T07:23:40.910Z,-0.35
2023-02-24T07:26:19.211Z,-0.30
2023-02-24T07:28:49.151Z,-0.24
2023-02-24T07:31:19.026Z,-0.18
2023-02-24T07:33:48.659Z,-0.12
2023-02-24T07:36:23.400Z,-0.12
2023-02-24T07:38:52.810Z,-0.12
2023-02-24T07:41:23.006Z,-0.07
2023-02-24T07:43:54.321Z,-0.04
2023-02-24T07:46:25.267Z,0.02
2023-02-24T07:48:54.148Z,0.10
2023-02-24T07:51:26.192Z,0.15
2023-02-24T07:53:59.123Z,0.19
2023-02-24T07:59:15.492Z,0.31
2023-02-24T08:01:49.819Z,0.38
2023-02-24T08:04:19.116Z,0.44
2023-02-24T08:06:50.380Z,0.45
2023-02-24T08:09:42.606Z,0.45
2023-02-24T08:12:17.947Z,0.42
2023-02-24T08:14:51.311Z,0.42
2023-02-24T08:17:26.612Z,0.40
2023-02-24T08:20:22.049Z,0.38
2023-02-24T08:22:52.240Z,0.40
2023-02-24T08:25:38.449Z,0.42
2023-02-24T08:28:11.680Z,0.46
2023-02-24T08:31:29.049Z,0.52
2023-02-24T08:33:57.163Z,0.54
2023-02-24T08:36:26.229Z,0.55
2023-02-24T08:38:59.842Z,0.51
2023-02-24T08:41:44.875Z,0.50
2023-02-24T08:44:13.100Z,0.54
2023-02-24T08:46:41.029Z,0.59
2023-02-24T08:49:12.285Z,0.64
2023-02-24T08:51:43.969Z,0.67
2023-02-24T08:54:17.345Z,0.73
2023-02-24T08:56:56.164Z,0.76
2023-02-24T08:59:38.710Z,0.73
2023-02-24T09:02:24.572Z,0.71
2023-02-24T09:05:13.922Z,0.69
2023-02-24T09:07:43.175Z,0.66
2023-02-24T09:10:19.760Z,0.64
2023-02-24T09:12:49.397Z,0.64
2023-02-24T09:15:17.933Z,0.69
2023-02-24T09:17:50.338Z,0.75
2023-02-24T09:20:38.960Z,0.75
2023-02-24T09:23:08.005Z,0.78
2023-02-24T09:25:47.264Z,0.80
2023-02-24T09:28:17.653Z,0.83
2023-02-24T09:30:57.283Z,0.83
2023-02-24T09:33:28.537Z,0.87
2023-02-24T09:36:10.020Z,0.91
2023-02-24T09:39:01.344Z,0.96
2023-02-24T09:42:17.844Z,1.01
2023-02-24T09:44:49.304Z,1.07
2023-02-24T09:47:55.067Z,1.17
2023-02-24T09:51:01.621Z,1.26
2023-02-24T09:53:33.928Z,1.27
2023-02-24T09:59:26.362Z,1.34
2023-02-24T10:02:03.429Z,1.37
2023-02-24T10:04:49.239Z,1.35
2023-02-24T10:07:38.440Z,1.33
2023-02-24T10:11:01.000Z,1.35
2023-02-24T10:13:32.780Z,1.37
2023-02-24T10:16:06.967Z,1.38
2023-02-24T10:18:40.306Z,1.38
2023-02-24T10:21:48.431Z,1.38
2023-02-24T10:24:29.518Z,1.35
2023-02-24T10:27:24.103Z,1.38
2023-02-24T10:30:11.363Z,1.37
2023-02-24T10:33:12.441Z,1.39
2023-02-24T10:35:40.985Z,1.41
2023-02-24T10:38:09.095Z,1.43
2023-02-24T10:41:06.455Z,1.52
2023-02-24T10:43:45.485Z,1.62
2023-02-24T10:46:40.089Z,1.68
2023-02-24T10:49:10.099Z,1.77
2023-02-24T10:51:45.265Z,1.85
2023-02-24T10:54:25.025Z,1.93
2023-02-24T10:57:00.855Z,2.02
2023-02-24T10:59:48.340Z,2.06
2023-02-24T11:02:48.863Z,2.03
2023-02-24T11:05:41.076Z,1.92
2023-02-24T11:08:45.193Z,1.90
2023-02-24T11:11:34.241Z,1.89
2023-02-24T11:14:21.171Z,1.88
2023-02-24T11:17:13.597Z,1.92
2023-02-24T11:19:56.108Z,1.94
2023-02-24T11:22:36.276Z,1.97
2023-02-24T11:25:12.063Z,1.98
2023-02-24T11:27:41.767Z,1.99
2023-02-24T11:30:41.037Z,1.99
2023-02-24T11:33:22.298Z,1.96
2023-02-24T11:35:58.593Z,1.95
2023-02-24T11:38:52.958Z,1.95
2023-02-24T11:41:27.430Z,1.94
2023-02-24T11:44:13.952Z,1.98
2023-02-24T11:46:46.007Z,2.04
2023-02-24T11:49:26.274Z,2.04
2023-02-24T11:51:54.479Z,2.02
2023-02-24T11:54:23.285Z,1.98
2023-02-24T11:56:56.196Z,1.95
2023-02-24T11:59:41.023Z,1.95
2023-02-24T12:02:34.163Z,1.98
2023-02-24T12:05:17.028Z,2.02
2023-02-24T12:07:52.888Z,2.01
2023-02-24T12:10:36.417Z,1.98
2023-02-24T12:13:28.141Z,1.96
2023-02-24T12:16:04.985Z,1.94
2023-02-24T12:28:42.663Z,1.71
2023-02-24T12:37:35.157Z,1.77
2023-02-24T12:40:15.368Z,1.75
2023-02-24T12:42:50.533Z,1.80
2023-02-24T12:45:22.192Z,1.83
2023-02-24T12:48:19.732Z,1.87
2023-02-24T12:51:04.353Z,1.95
2023-02-24T12:53:49.448Z,1.98
2023-02-24T12:56:24.285Z,2.02
2023-02-24T12:58:54.452Z,2.05
2023-02-24T13:01:46.322Z,2.09
2023-02-24T13:04:45.520Z,2.13
2023-02-24T13:07:40.457Z,2.16
2023-02-24T13:10:14.836Z,2.13
2023-02-24T13:12:53.218Z,2.11
2023-02-24T13:15:23.697Z,2.11
2023-02-24T13:17:56.394Z,2.09
2023-02-24T13:20:33.323Z,2.08
2023-02-24T13:23:05.028Z,2.08
2023-02-24T13:25:37.011Z,2.07
2023-02-24T13:28:27.588Z,2.06
2023-02-24T13:31:00.860Z,2.10
2023-02-24T13:33:45.216Z,2.14
2023-02-24T13:36:21.973Z,2.19
2023-02-24T13:38:51.071Z,2.25
2023-02-24T13:41:26.664Z,2.27
2023-02-24T13:43:59.673Z,2.27
2023-02-24T13:46:53.317Z,2.24
2023-02-24T13:49:40.386Z,2.22
2023-02-24T13:52:53.002Z,2.21
2023-02-24T13:55:55.547Z,2.22
2023-02-24T13:58:27.317Z,2.22
2023-02-24T14:01:14.202Z,2.21
2023-02-24T14:03:44.573Z,2.23
2023-02-24T14:06:26.940Z,2.25
2023-02-24T14:08:59.963Z,2.27
2023-02-24T14:11:30.127Z,2.24
2023-02-24T14:13:58.168Z,2.22
2023-02-24T14:16:39.728Z,2.20
2023-02-24T14:19:14.299Z,2.21
2023-02-24T14:21:53.421Z,2.21
2023-02-24T14:24:21.736Z,2.20
2023-02-24T14:26:52.338Z,2.17
2023-02-24T14:29:26.738Z,2.15
2023-02-24T14:31:54.970Z,2.15
2023-02-24T14:34:24.850Z,2.17
2023-02-24T14:36:56.694Z,2.19
2023-02-24T14:39:26.300Z,2.19
2023-02-24T14:42:07.328Z,2.18
2023-02-24T14:44:50.544Z,2.14
2023-02-24T14:47:20.751Z,2.09
2023-02-24T14:50:02.085Z,2.06
2023-02-24T14:52:35.025Z,2.05
2023-02-24T14:55:15.873Z,2.06
2023-02-24T14:57:49.790Z,2.10
2023-02-24T15:00:24.148Z,2.14
2023-02-24T15:02:56.842Z,2.16
2023-02-24T15:05:24.838Z,2.16
2023-02-24T15:07:53.062Z,2.14
2023-02-24T15:10:26.427Z,2.15
2023-02-24T15:13:11.140Z,2.17
2023-02-24T15:15:39.469Z,2.19
2023-02-24T15:18:16.420Z,2.22
2023-02-24T15:20:44.463Z,2.26
2023-02-24T15:23:32.776Z,2.27
2023-02-24T15:26:01.178Z,2.26
2023-02-24T15:28:32.260Z,2.24
2023-02-24T15:31:01.093Z,2.22
2023-02-24T15:33:42.897Z,2.20
2023-02-24T15:36:12.843Z,2.23
2023-02-24T15:38:42.433Z,2.26
2023-02-24T15:41:11.180Z,2.28
2023-02-24T15:43:50.204Z,2.29
2023-02-24T15:46:18.819Z,2.32
2023-02-24T15:48:48.280Z,2.34
2023-02-24T15:51:40.289Z,2.32
2023-02-24T15:54:31.534Z,2.30
2023-02-24T15:56:59.485Z,2.30
2023-02-24T15:59:28.086Z,2.30
2023-02-24T16:02:00.989Z,2.30
2023-02-24T16:04:29.621Z,2.29
2023-02-24T16:06:57.761Z,2.29
2023-02-24T16:09:32.392Z,2.27
2023-02-24T16:12:00.618Z,2.26
2023-02-24T16:14:28.683Z,2.26
2023-02-24T16:16:56.658Z,2.26
2023-02-24T16:19:25.725Z,2.26
2023-02-24T16:21:54.178Z,2.26
2023-02-24T16:24:22.204Z,2.26
2023-02-24T16:26:50.239Z,2.25
2023-02-24T16:29:18.676Z,2.25
2023-02-24T16:31:47.232Z,2.25
2023-02-24T16:34:16.484Z,2.24
2023-02-24T16:36:49.834Z,2.22
2023-02-24T16:39:17.963Z,2.22
2023-02-24T16:41:46.153Z,2.21
2023-02-24T16:44:14.392Z,2.22
2023-02-24T16:46:42.576Z,2.22
2023-02-24T16:49:10.667Z,2.22
2023-02-24T16:51:40.577Z,2.22
2023-02-24T16:54:08.584Z,2.21
2023-02-24T16:56:38.960Z,2.22
2023-02-24T16:59:08.267Z,2.22
2023-02-24T17:01:36.657Z,2.23
2023-02-24T17:04:13.590Z,2.23
2023-02-24T17:06:42.413Z,2.25
2023-02-24T17:09:10.618Z,2.25
2023-02-24T17:11:45.477Z,2.25
2023-02-24T17:14:18.431Z,2.26
2023-02-24T17:16:51.991Z,2.27
2023-02-24T17:19:20.336Z,2.27
2023-02-24T17:21:48.362Z,2.29
2023-02-24T17:24:18.245Z,2.29
2023-02-24T17:26:46.351Z,2.29
2023-02-24T17:29:14.760Z,2.30
2023-02-24T17:31:43.125Z,2.29
2023-02-24T17:34:11.194Z,2.30
2023-02-24T17:36:40.225Z,2.32
2023-02-24T17:39:10.052Z,2.34
2023-02-24T17:41:38.310Z,2.33
2023-02-24T17:44:06.630Z,2.33
2023-02-24T17:46:34.747Z,2.33
2023-02-24T17:49:05.143Z,2.34
2023-02-24T17:51:33.481Z,2.32
2023-02-24T17:54:01.463Z,2.31
2023-02-24T17:56:29.916Z,2.27
2023-02-24T17:59:00.987Z,2.25
2023-02-24T18:01:29.291Z,2.21
2023-02-24T18:03:58.007Z,2.18
2023-02-24T18:06:26.016Z,2.17
2023-02-24T18:08:55.170Z,2.14
2023-02-24T18:11:23.692Z,2.10
2023-02-24T18:14:00.414Z,2.09
2023-02-24T18:16:30.571Z,2.07
2023-02-24T18:18:58.734Z,2.06
2023-02-24T18:21:26.774Z,2.04
2023-02-24T18:23:54.923Z,2.02
2023-02-24T18:26:25.473Z,2.00
2023-02-24T18:28:55.413Z,1.98
2023-02-24T18:31:27.592Z,1.97
2023-02-24T18:33:56.220Z,1.96
2023-02-24T18:36:24.356Z,1.94
2023-02-24T18:38:53.238Z,1.94
2023-02-24T18:41:21.912Z,1.93
2023-02-24T18:43:54.666Z,1.91
2023-02-24T18:46:23.983Z,1.91
2023-02-24T18:48:52.513Z,1.91
2023-02-24T18:51:21.768Z,1.93
2023-02-24T18:53:52.613Z,1.93
2023-02-24T18:56:23.321Z,1.94
2023-02-24T18:58:52.878Z,1.95
2023-02-24T19:01:23.328Z,1.95
2023-02-24T19:03:51.478Z,1.94
2023-02-24T19:06:21.489Z,1.95
2023-02-24T19:08:54.353Z,1.95
2023-02-24T19:11:27.616Z,1.95
2023-02-24T19:13:56.746Z,1.96
2023-02-24T19:16:25.119Z,1.95
2023-02-24T19:18:55.027Z,1.95
2023-02-24T19:21:24.304Z,1.93
2023-02-24T19:23:52.369Z,1.91
2023-02-24T19:26:24.195Z,1.90
2023-02-24T19:28:52.478Z,1.88
2023-02-24T19:31:22.694Z,1.89
2023-02-24T19:34:00.832Z,1.89
2023-02-24T19:36:30.783Z,1.91
2023-02-24T19:39:00.185Z,1.93
2023-02-24T19:41:28.271Z,1.95
2023-02-24T19:43:58.008Z,1.98
2023-02-24T19:46:26.842Z,1.99
2023-02-24T19:48:56.524Z,2.01
2023-02-24T19:51:24.923Z,2.02
2023-02-24T19:53:57.065Z,2.03
2023-02-24T19:56:27.502Z,2.03
2023-02-24T19:58:56.491Z,2.03
2023-02-24T20:01:25.352Z,2.03
2023-02-24T20:03:54.655Z,2.06
2023-02-24T20:06:25.749Z,2.09
2023-02-24T20:08:53.874Z,2.09
2023-02-24T20:11:24.548Z,2.10
2023-02-24T20:13:54.204Z,2.12
2023-02-24T20:16:28.714Z,2.14
2023-02-24T20:18:57.996Z,2.15
2023-02-24T20:21:26.140Z,2.16
2023-02-24T20:23:54.182Z,2.19
2023-02-24T20:26:22.736Z,2.21
2023-02-24T20:28:50.978Z,2.22
2023-02-24T20:31:24.025Z,2.23
2023-02-24T20:33:52.499Z,2.23
2023-02-24T20:36:25.927Z,2.24
2023-02-24T20:38:54.884Z,2.25
2023-02-24T20:41:22.839Z,2.24
2023-02-24T20:43:51.628Z,2.23
2023-02-24T20:46:25.618Z,2.23
2023-02-24T20:49:05.514Z,2.22
2023-02-24T20:51:34.298Z,2.23
2023-02-24T20:54:02.201Z,2.24
2023-02-24T20:56:34.363Z,2.25
2023-02-24T20:59:13.761Z,2.26
2023-02-24T21:01:42.011Z,2.26
2023-02-24T21:04:11.113Z,2.27
2023-02-24T21:06:39.944Z,2.28
2023-02-24T21:09:12.316Z,2.29
2023-02-24T21:11:42.222Z,2.30
2023-02-24T21:14:20.280Z,2.31
2023-02-24T21:16:50.047Z,2.32
2023-02-24T21:19:20.433Z,2.33
2023-02-24T21:21:48.346Z,2.33
2023-02-24T21:24:16.361Z,2.33
2023-02-24T21:26:46.074Z,2.34
2023-02-24T21:29:14.063Z,2.34
2023-02-24T21:31:43.092Z,2.37
2023-02-24T21:34:12.156Z,2.38
2023-02-24T21:36:41.466Z,2.38
2023-02-24T21:39:14.687Z,2.39
2023-02-24T21:41:43.047Z,2.38
2023-02-24T21:44:12.211Z,2.40
2023-02-24T21:46:43.498Z,2.41
2023-02-24T21:49:14.432Z,2.41
2023-02-24T21:51:46.007Z,2.42
2023-02-24T21:54:14.424Z,2.43
2023-02-24T21:56:42.844Z,2.43
2023-02-24T21:59:11.336Z,2.45
2023-02-24T22:01:43.568Z,2.46
2023-02-24T22:04:13.907Z,2.47
2023-02-24T22:06:42.907Z,2.47
2023-02-24T22:09:12.591Z,2.48
2023-02-24T22:11:41.591Z,2.47
2023-02-24T22:14:10.875Z,2.46
2023-02-24T22:16:40.677Z,2.46
2023-02-24T22:19:09.380Z,2.46
2023-02-24T22:21:41.437Z,2.45
2023-02-24T22:24:12.213Z,2.45
2023-02-24T22:26:40.360Z,2.46
2023-02-24T22:29:08.941Z,2.46
2023-02-24T22:31:39.279Z,2.46
2023-02-24T22:34:08.880Z,2.46
2023-02-24T22:36:37.838Z,2.46
2023-02-24T22:39:06.396Z,2.46
2023-02-24T22:41:34.942Z,2.46
2023-02-24T22:44:04.198Z,2.46
2023-02-24T22:46:34.308Z,2.46
2023-02-24T22:49:02.797Z,2.45
2023-02-24T22:51:31.901Z,2.45
2023-02-24T22:54:00.240Z,2.45
2023-02-24T22:56:29.645Z,2.47
2023-02-24T22:58:58.728Z,2.48
2023-02-24T23:01:30.903Z,2.49
2023-02-24T23:04:01.112Z,2.51
2023-02-24T23:06:30.447Z,2.51
2023-02-24T23:09:00.219Z,2.51
2023-02-24T23:11:34.964Z,2.51
2023-02-24T23:14:06.111Z,2.49
2023-02-24T23:16:34.945Z,2.48
2023-02-24T23:19:06.264Z,2.46
2023-02-24T23:21:35.872Z,2.45
2023-02-24T23:24:09.232Z,2.44
2023-02-24T23:26:45.695Z,2.43
2023-02-24T23:29:15.459Z,2.43
2023-02-24T23:31:44.127Z,2.43
2023-02-24T23:34:12.267Z,2.42
2023-02-24T23:36:43.672Z,2.42
2023-02-24T23:39:12.996Z,2.41
2023-02-24T23:41:41.736Z,2.40
2023-02-24T23:44:09.717Z,2.41
2023-02-24T23:46:37.749Z,2.41
2023-02-24T23:49:11.640Z,2.42
2023-02-24T23:51:47.975Z,2.42
2023-02-24T23:54:18.115Z,2.42
2023-02-24T23:56:46.567Z,2.44
2023-02-24T23:59:21.435Z,2.44
